createdAt,value
2019-03-17T00:00:03.433Z,7.95
2019-03-17T00:02:31.414Z,5.22
2019-03-17T00:04:59.445Z,6.08
2019-03-17T00:07:27.626Z,5.80
2019-03-17T00:09:55.733Z,6.95
2019-03-17T00:12:23.866Z,6.22
2019-03-17T00:15:04.243Z,6.17
2019-03-17T00:17:21.620Z,6.17
2019-03-17T00:19:49.765Z,5.62
2019-03-17T00:22:17.914Z,5.55
2019-03-17T00:24:46.139Z,4.50
2019-03-17T00:27:14.217Z,4.62
2019-03-17T00:29:42.399Z,6.22
2019-03-17T00:32:10.511Z,4.58
2019-03-17T00:34:44.181Z,7.10
2019-03-17T00:37:08.406Z,5.65
2019-03-17T00:39:36.584Z,5.62
2019-03-17T00:42:04.748Z,6.95
2019-03-17T00:44:32.865Z,6.30
2019-03-17T00:47:00.968Z,6.37
2019-03-17T00:49:29.125Z,5.80
2019-03-17T00:51:57.282Z,6.20
2019-03-17T00:54:25.413Z,6.37
2019-03-17T00:56:53.579Z,5.25
2019-03-17T00:59:21.763Z,5.08
2019-03-17T01:01:49.795Z,4.67
2019-03-17T01:04:17.913Z,7.00
2019-03-17T01:06:46.040Z,7.65
2019-03-17T01:09:14.286Z,4.40
2019-03-17T01:11:42.472Z,5.33
2019-03-17T01:14:10.666Z,6.08
2019-03-17T01:16:38.708Z,9.73
2019-03-17T01:19:06.908Z,9.05
2019-03-17T01:21:35.119Z,7.20
2019-03-17T01:24:03.129Z,7.95
2019-03-17T01:26:31.166Z,9.50
2019-03-17T01:28:59.258Z,6.47
2019-03-17T01:31:27.342Z,6.28
2019-03-17T01:33:55.357Z,6.28
2019-03-17T01:36:23.370Z,6.70
2019-03-17T01:38:51.385Z,5.08
2019-03-17T01:41:19.591Z,5.00
2019-03-17T01:43:47.612Z,6.45
2019-03-17T01:46:15.625Z,5.70
2019-03-17T01:48:43.621Z,5.25
2019-03-17T01:51:11.601Z,5.80
2019-03-17T01:53:39.575Z,5.58
2019-03-17T01:56:07.573Z,5.78
2019-03-17T01:58:35.578Z,6.67
2019-03-17T02:01:03.563Z,7.05
2019-03-17T02:03:31.586Z,4.50
2019-03-17T02:05:59.651Z,6.40
2019-03-17T02:08:27.601Z,4.87
2019-03-17T02:10:55.660Z,5.60
2019-03-17T02:13:23.656Z,7.00
2019-03-17T02:15:52.968Z,6.97
2019-03-17T02:18:21.109Z,11.22
2019-03-17T02:20:49.197Z,8.13
2019-03-17T02:23:17.289Z,8.70
2019-03-17T02:25:45.310Z,8.70
2019-03-17T02:28:13.358Z,10.18
2019-03-17T02:30:41.407Z,7.83
2019-03-17T02:33:09.393Z,5.62
2019-03-17T02:35:39.891Z,7.47
2019-03-17T02:38:07.293Z,10.48
2019-03-17T02:40:35.353Z,15.15
2019-03-17T02:43:03.453Z,11.12
2019-03-17T02:45:31.506Z,12.80
2019-03-17T02:47:59.522Z,15.30
2019-03-17T02:50:27.558Z,10.68
2019-03-17T02:52:55.588Z,11.15
2019-03-17T02:55:23.572Z,10.40
2019-03-17T02:57:51.550Z,10.78
2019-03-17T03:00:19.531Z,10.20
2019-03-17T03:02:47.641Z,10.08
2019-03-17T03:05:15.619Z,10.30
2019-03-17T03:07:43.678Z,12.40
2019-03-17T03:10:11.725Z,8.30
2019-03-17T03:12:39.800Z,12.85
2019-03-17T03:15:07.824Z,8.95
2019-03-17T03:17:35.880Z,11.78
2019-03-17T03:20:04.112Z,8.88
2019-03-17T03:22:32.151Z,10.45
2019-03-17T03:25:00.650Z,10.35
2019-03-17T03:27:30.552Z,11.40
2019-03-17T03:29:58.646Z,9.65
2019-03-17T03:32:26.730Z,12.55
2019-03-17T03:34:54.829Z,10.13
2019-03-17T03:37:25.938Z,12.73
2019-03-17T03:39:54.045Z,10.15
2019-03-17T03:42:22.056Z,11.57
2019-03-17T03:44:50.131Z,10.70
2019-03-17T03:47:18.123Z,11.03
2019-03-17T03:49:46.226Z,11.35
2019-03-17T03:52:14.315Z,10.70
2019-03-17T03:54:42.418Z,12.10
2019-03-17T03:57:10.425Z,10.72
2019-03-17T03:59:38.546Z,10.25
2019-03-17T04:02:06.536Z,11.83
2019-03-17T04:04:34.703Z,11.45
2019-03-17T04:07:02.670Z,7.10
2019-03-17T04:09:30.819Z,12.43
2019-03-17T04:11:58.920Z,10.70
2019-03-17T04:14:26.993Z,11.65
2019-03-17T04:16:55.140Z,12.23
2019-03-17T04:19:23.204Z,11.68
2019-03-17T04:21:51.256Z,14.85
2019-03-17T04:24:19.270Z,12.37
2019-03-17T04:26:47.335Z,15.65
2019-03-17T04:29:15.408Z,19.02
2019-03-17T04:31:43.416Z,14.85
2019-03-17T04:34:11.553Z,11.35
2019-03-17T04:36:40.788Z,14.15
2019-03-17T04:39:08.960Z,11.35
2019-03-17T04:41:36.977Z,11.95
2019-03-17T04:44:04.986Z,12.35
2019-03-17T04:46:33.022Z,13.58
2019-03-17T04:49:01.170Z,13.32
2019-03-17T04:51:29.446Z,14.18
2019-03-17T04:53:57.436Z,11.93
2019-03-17T04:56:43.552Z,11.18
2019-03-17T04:59:11.538Z,13.83
2019-03-17T05:01:39.535Z,8.58
2019-03-17T05:04:07.582Z,8.58
2019-03-17T05:06:35.661Z,13.30
2019-03-17T05:09:04.566Z,12.23
2019-03-17T05:11:32.590Z,10.78
2019-03-17T05:14:00.604Z,12.28
2019-03-17T05:16:28.632Z,17.27
2019-03-17T05:18:56.635Z,11.15
2019-03-17T05:21:24.604Z,12.95
2019-03-17T05:23:52.648Z,11.78
2019-03-17T05:26:20.746Z,12.23
2019-03-17T05:28:48.760Z,13.68
2019-03-17T05:31:16.739Z,11.80
2019-03-17T05:33:44.811Z,11.38
2019-03-17T05:36:12.876Z,10.93
2019-03-17T05:38:40.872Z,13.65
2019-03-17T05:41:08.848Z,16.35
2019-03-17T05:43:36.849Z,16.73
2019-03-17T05:46:04.886Z,15.98
2019-03-17T05:48:32.869Z,12.82
2019-03-17T05:51:00.885Z,11.57
2019-03-17T05:53:28.953Z,17.20
2019-03-17T05:55:56.962Z,15.88
2019-03-17T05:58:25.138Z,13.43
2019-03-17T06:00:53.176Z,13.03
2019-03-17T06:03:21.287Z,11.70
2019-03-17T06:05:49.482Z,12.20
2019-03-17T06:08:17.633Z,15.40
2019-03-17T06:10:45.921Z,11.33
2019-03-17T06:13:14.032Z,11.33
2019-03-17T06:15:42.136Z,13.18
2019-03-17T06:18:10.358Z,11.88
2019-03-17T06:20:39.756Z,14.03
2019-03-17T06:23:10.416Z,14.33
2019-03-17T06:25:38.606Z,10.63
2019-03-17T06:28:06.845Z,12.13
2019-03-17T06:30:37.534Z,8.08
2019-03-17T06:33:05.574Z,9.85
2019-03-17T06:35:36.021Z,9.38
2019-03-17T06:38:04.389Z,10.93
2019-03-17T06:40:47.249Z,11.93
2019-03-17T06:43:14.338Z,13.15
2019-03-17T06:45:44.068Z,8.03
2019-03-17T06:48:12.230Z,10.03
2019-03-17T06:50:40.654Z,11.38
2019-03-17T06:53:08.900Z,8.70
2019-03-17T06:55:37.125Z,6.30
2019-03-17T06:58:07.560Z,6.50
2019-03-17T07:00:35.773Z,5.85
2019-03-17T07:03:03.957Z,4.15
2019-03-17T07:05:31.942Z,5.17
2019-03-17T07:07:59.938Z,4.65
2019-03-17T07:10:27.903Z,4.15
2019-03-17T07:12:55.964Z,5.20
2019-03-17T07:15:23.946Z,3.87
2019-03-17T07:17:51.966Z,3.72
2019-03-17T07:20:19.923Z,3.30
2019-03-17T07:22:47.936Z,1.75
2019-03-17T07:25:15.910Z,1.50
2019-03-17T07:27:43.992Z,1.20
2019-03-17T07:30:12.400Z,2.12
2019-03-17T07:32:40.408Z,1.47
2019-03-17T07:35:08.498Z,1.87
2019-03-17T07:37:36.462Z,1.37
2019-03-17T07:40:04.882Z,1.60
2019-03-17T07:42:32.909Z,2.58
2019-03-17T07:45:00.888Z,1.45
2019-03-17T07:47:28.920Z,2.75
2019-03-17T07:49:56.901Z,2.17
2019-03-17T07:52:24.876Z,2.87
2019-03-17T07:54:52.842Z,2.25
2019-03-17T07:57:20.818Z,1.98
2019-03-17T07:59:48.864Z,3.17
2019-03-17T08:02:16.917Z,1.45
2019-03-17T08:04:46.223Z,1.52
2019-03-17T08:07:19.407Z,2.20
2019-03-17T08:09:47.576Z,2.55
2019-03-17T08:12:15.533Z,2.27
2019-03-17T08:14:43.480Z,3.85
2019-03-17T08:17:11.459Z,2.10
2019-03-17T08:19:39.421Z,2.20
2019-03-17T08:23:00.276Z,2.67
2019-03-17T08:25:28.324Z,3.05
2019-03-17T08:28:13.031Z,2.27
2019-03-17T08:30:52.520Z,2.83
2019-03-17T08:33:12.620Z,2.10
2019-03-17T08:35:40.824Z,2.42
2019-03-17T08:38:20.907Z,3.00
2019-03-17T08:40:38.778Z,2.95
2019-03-17T08:43:06.947Z,4.28
2019-03-17T08:45:35.139Z,4.00
2019-03-17T08:48:03.216Z,4.42
2019-03-17T08:50:31.497Z,2.70
2019-03-17T08:52:59.713Z,4.92
2019-03-17T08:55:28.116Z,5.05
2019-03-17T08:57:56.457Z,3.50
2019-03-17T09:00:24.667Z,3.67
2019-03-17T09:02:54.420Z,5.78
2019-03-17T09:05:22.642Z,5.33
2019-03-17T09:07:50.874Z,4.12
2019-03-17T09:10:19.213Z,6.15
2019-03-17T09:12:57.930Z,4.35
2019-03-17T09:15:24.767Z,2.33
2019-03-17T09:17:54.591Z,6.17
2019-03-17T09:20:22.762Z,4.33
2019-03-17T09:22:51.035Z,4.37
2019-03-17T09:25:19.155Z,4.87
2019-03-17T09:27:47.388Z,2.83
2019-03-17T09:30:15.559Z,4.63
2019-03-17T09:32:43.771Z,3.70
2019-03-17T09:35:11.928Z,5.53
2019-03-17T09:37:40.119Z,4.62
2019-03-17T09:40:08.698Z,4.87
2019-03-17T09:42:36.933Z,5.37
2019-03-17T09:45:13.680Z,6.10
2019-03-17T09:47:41.990Z,6.33
2019-03-17T09:50:17.752Z,6.80
2019-03-17T09:52:45.914Z,6.53
2019-03-17T09:55:17.497Z,7.70
2019-03-17T09:58:02.468Z,8.78
2019-03-17T10:49:33.638Z,2.50
2019-03-17T10:52:02.073Z,1.25
2019-03-17T10:54:48.637Z,1.17
2019-03-17T10:57:05.661Z,1.67
2019-03-17T10:59:42.386Z,2.52
2019-03-17T11:02:17.389Z,2.12
2019-03-17T11:04:45.615Z,2.95
2019-03-17T11:07:14.081Z,3.27
2019-03-17T11:09:58.410Z,2.47
2019-03-17T11:12:30.991Z,1.67
2019-03-17T11:15:07.488Z,1.72
2019-03-17T11:17:38.697Z,1.80
2019-03-17T11:20:07.665Z,2.27
2019-03-17T11:22:39.079Z,2.47
2019-03-17T11:25:07.342Z,1.75
2019-03-17T11:27:37.000Z,3.57
2019-03-17T11:30:05.847Z,2.83
2019-03-17T11:32:33.961Z,2.00
2019-03-17T11:35:02.091Z,1.50
2019-03-17T11:37:30.257Z,2.20
2019-03-17T11:39:58.302Z,3.80
2019-03-17T11:42:26.355Z,1.20
2019-03-17T11:44:54.398Z,2.72
2019-03-17T11:47:22.560Z,1.10
2019-03-17T11:49:50.768Z,3.10
2019-03-17T11:52:19.014Z,3.80
2019-03-17T11:54:47.154Z,2.33
2019-03-17T11:57:15.358Z,2.05
2019-03-17T11:59:43.509Z,2.08
2019-03-17T12:02:12.854Z,3.05
2019-03-17T12:04:40.939Z,1.70
2019-03-17T12:07:09.020Z,1.60
2019-03-17T12:09:49.299Z,1.20
2019-03-17T12:12:18.828Z,1.02
2019-03-17T12:14:46.983Z,1.30
2019-03-17T12:18:02.078Z,1.00
2019-03-17T12:20:32.024Z,2.40
2019-03-17T12:23:00.272Z,1.10
2019-03-17T12:25:28.489Z,1.47
2019-03-17T12:28:05.950Z,1.47
2019-03-17T12:30:34.108Z,2.67
2019-03-17T12:33:02.222Z,3.25
2019-03-17T12:36:45.912Z,1.77
2019-03-17T12:38:28.902Z,3.08
2019-03-17T12:40:56.979Z,2.55
2019-03-17T12:43:25.070Z,2.58
2019-03-17T12:45:53.213Z,3.80
2019-03-17T12:48:21.244Z,1.60
2019-03-17T12:50:49.326Z,2.02
2019-03-17T12:53:18.691Z,1.70
2019-03-17T12:55:46.795Z,2.33
2019-03-17T12:58:15.103Z,2.87
2019-03-17T13:00:45.380Z,10.00
2019-03-17T13:03:13.498Z,3.37
2019-03-17T13:05:41.650Z,2.15
2019-03-17T13:08:09.776Z,4.37
2019-03-17T13:10:37.866Z,2.27
2019-03-17T13:13:05.899Z,2.17
2019-03-17T13:15:34.018Z,4.60
2019-03-17T13:18:02.101Z,2.58
2019-03-17T13:20:30.198Z,3.70
2019-03-17T13:22:58.353Z,3.22
2019-03-17T13:25:26.423Z,4.12
2019-03-17T13:27:54.561Z,1.30
2019-03-17T13:30:22.707Z,3.23
2019-03-17T13:32:51.105Z,1.55
2019-03-17T13:35:19.180Z,2.35
2019-03-17T13:37:47.286Z,1.75
2019-03-17T13:40:27.617Z,7.73
2019-03-17T13:42:45.136Z,3.45
2019-03-17T13:45:15.505Z,2.37
2019-03-17T13:47:43.653Z,1.35
2019-03-17T13:50:12.941Z,2.72
2019-03-17T13:52:41.125Z,3.00
2019-03-17T13:55:09.180Z,6.22
2019-03-17T13:57:37.192Z,4.28
2019-03-17T14:00:05.532Z,2.58
2019-03-17T14:02:33.625Z,2.05
2019-03-17T14:05:01.672Z,3.35
2019-03-17T14:07:29.845Z,4.62
2019-03-17T14:09:57.816Z,2.30
2019-03-17T14:12:25.824Z,3.15
2019-03-17T14:14:53.918Z,1.87
2019-03-17T14:17:21.933Z,1.45
2019-03-17T14:19:49.990Z,1.15
2019-03-17T14:22:18.029Z,0.70
2019-03-17T14:24:46.101Z,2.02
2019-03-17T14:27:14.274Z,1.42
2019-03-17T14:29:42.410Z,1.70
2019-03-17T14:32:10.530Z,1.52
2019-03-17T14:34:38.617Z,2.10
2019-03-17T14:37:06.659Z,6.95
2019-03-17T14:39:34.692Z,2.37
2019-03-17T14:42:02.680Z,1.95
2019-03-17T14:44:30.763Z,2.02
2019-03-17T14:46:58.849Z,2.12
2019-03-17T14:49:26.988Z,3.08
2019-03-17T14:51:55.098Z,6.95
2019-03-17T14:54:23.116Z,8.28
2019-03-17T14:56:51.129Z,3.55
2019-03-17T14:59:19.234Z,3.00
2019-03-17T15:01:47.239Z,2.77
2019-03-17T15:04:26.214Z,3.90
2019-03-17T15:06:54.456Z,4.80
2019-03-17T15:09:44.300Z,8.98
2019-03-17T15:12:22.110Z,7.87
2019-03-17T15:14:55.291Z,7.78
2019-03-17T15:24:05.785Z,2.60
2019-03-17T15:36:39.911Z,4.17
2019-03-17T15:39:12.830Z,3.40
2019-03-17T15:41:41.183Z,9.63
2019-03-17T15:44:14.632Z,11.15
2019-03-17T15:46:42.779Z,17.52
2019-03-17T15:49:14.438Z,5.25
2019-03-17T15:51:45.055Z,5.27
2019-03-17T15:54:13.248Z,5.40
2019-03-17T15:56:44.355Z,6.03
2019-03-17T15:59:15.346Z,7.80
2019-03-17T16:11:52.844Z,4.07
2019-03-17T16:14:35.412Z,7.15
2019-03-17T16:17:05.044Z,5.72
2019-03-17T16:19:35.654Z,5.90
2019-03-17T16:22:10.243Z,6.17
2019-03-17T16:24:42.180Z,9.63
2019-03-17T16:27:10.459Z,6.67
2019-03-17T16:29:42.088Z,7.28
2019-03-17T16:32:12.678Z,11.00
2019-03-17T16:41:42.590Z,5.47
2019-03-17T16:44:03.826Z,4.33
2019-03-17T16:50:34.911Z,5.85
2019-03-17T16:53:03.354Z,4.33
2019-03-17T16:56:11.355Z,6.28
2019-03-17T17:02:08.378Z,5.62
2019-03-17T17:04:38.384Z,7.42
2019-03-17T17:08:01.573Z,3.95
2019-03-17T17:10:29.904Z,4.55
2019-03-17T17:19:17.002Z,10.65
2019-03-17T17:22:46.812Z,8.30
2019-03-17T17:28:25.487Z,5.80
2019-03-17T17:31:04.281Z,7.10
2019-03-17T17:33:44.819Z,8.88
2019-03-17T17:36:22.861Z,21.02
2019-03-17T17:38:59.056Z,44.80
2019-03-17T17:42:21.371Z,57.23
2019-03-17T17:45:05.573Z,22.87
2019-03-17T17:48:07.243Z,17.80
2019-03-17T17:50:37.511Z,28.83
2019-03-17T17:55:45.929Z,19.07
2019-03-17T17:58:23.183Z,13.13
2019-03-17T18:01:13.155Z,5.95
2019-03-17T18:03:58.414Z,6.28
2019-03-17T18:06:33.987Z,5.72
2019-03-17T18:09:51.005Z,12.05
2019-03-17T18:12:23.797Z,3.87
2019-03-17T18:15:09.056Z,6.62
2019-03-17T18:17:50.480Z,15.95
2019-03-17T18:21:16.877Z,17.20
2019-03-17T18:23:27.651Z,13.58
2019-03-17T18:26:25.045Z,12.10
2019-03-17T18:29:00.865Z,17.40
2019-03-17T18:31:41.979Z,18.98
2019-03-17T18:34:10.215Z,4.42
2019-03-17T18:36:38.400Z,5.03
2019-03-17T18:39:07.187Z,4.60
2019-03-17T18:41:37.423Z,6.75
2019-03-17T18:44:05.442Z,4.35
2019-03-17T18:46:33.606Z,4.92
2019-03-17T18:49:01.783Z,5.35
2019-03-17T18:51:30.113Z,4.28
2019-03-17T18:53:58.495Z,6.70
2019-03-17T18:56:26.644Z,8.43
2019-03-17T18:58:54.907Z,5.78
2019-03-17T19:01:23.317Z,5.97
2019-03-17T19:03:51.523Z,4.42
2019-03-17T19:06:19.674Z,4.95
2019-03-17T19:09:51.960Z,4.22
2019-03-17T19:12:20.231Z,3.45
2019-03-17T19:14:48.498Z,3.90
2019-03-17T19:17:16.658Z,5.03
2019-03-17T19:19:45.006Z,4.08
2019-03-17T19:22:13.161Z,5.25
2019-03-17T19:24:41.372Z,3.45
2019-03-17T19:28:02.154Z,2.90
2019-03-17T19:30:30.410Z,3.05
2019-03-17T19:33:24.184Z,3.75
2019-03-17T19:36:11.853Z,3.27
2019-03-17T19:38:50.824Z,8.00
2019-03-17T19:41:36.551Z,10.25
2019-03-17T19:44:09.803Z,8.90
2019-03-17T19:46:41.007Z,8.85
2019-03-17T19:49:09.191Z,3.22
2019-03-17T19:51:37.531Z,5.60
2019-03-17T19:54:05.652Z,2.87
2019-03-17T19:56:34.073Z,3.15
2019-03-17T19:59:02.301Z,2.33
2019-03-17T20:01:31.762Z,3.98
2019-03-17T20:03:59.946Z,5.58
2019-03-17T20:10:05.032Z,2.85
2019-03-17T20:13:11.882Z,2.67
2019-03-17T20:16:20.383Z,2.17
2019-03-17T20:19:26.291Z,3.00
2019-03-17T20:22:09.830Z,3.15
2019-03-17T20:31:19.437Z,3.35
2019-03-17T20:37:36.050Z,2.58
2019-03-17T20:42:28.182Z,3.65
2019-03-17T20:56:44.740Z,3.83
2019-03-17T20:59:16.879Z,4.92
2019-03-17T21:01:45.054Z,3.50
2019-03-17T21:04:13.366Z,2.22
2019-03-17T21:06:42.149Z,4.10
2019-03-17T21:09:11.062Z,2.75
2019-03-17T21:11:42.489Z,3.95
2019-03-17T21:14:19.761Z,5.40
2019-03-17T21:16:48.006Z,3.90
2019-03-17T21:19:16.428Z,2.45
2019-03-17T21:21:44.630Z,3.27
2019-03-17T21:24:12.867Z,4.25
2019-03-17T21:26:49.387Z,3.52
2019-03-17T21:29:18.048Z,3.60
2019-03-17T21:32:03.001Z,3.22
2019-03-17T21:34:58.335Z,3.47
2019-03-17T21:37:26.555Z,5.65
2019-03-17T21:40:15.717Z,2.87
2019-03-17T21:42:43.308Z,3.02
2019-03-17T21:45:14.891Z,3.63
2019-03-17T21:47:44.869Z,3.47
2019-03-17T21:50:16.218Z,5.00
2019-03-17T21:52:44.482Z,2.98
2019-03-17T21:55:12.608Z,3.67
2019-03-17T21:57:40.688Z,4.37
2019-03-17T22:00:09.781Z,4.40
2019-03-17T22:02:37.823Z,3.60
2019-03-17T22:05:06.185Z,2.72
2019-03-17T22:07:34.257Z,4.33
2019-03-17T22:10:02.728Z,5.47
2019-03-17T22:12:31.212Z,4.10
2019-03-17T22:14:59.339Z,4.08
2019-03-17T22:17:27.706Z,4.47
2019-03-17T22:19:56.117Z,3.92
2019-03-17T22:22:24.439Z,3.83
2019-03-17T22:24:52.637Z,3.40
2019-03-17T22:27:20.797Z,4.95
2019-03-17T22:29:51.038Z,6.53
2019-03-17T22:32:19.095Z,5.90
2019-03-17T22:34:47.150Z,3.85
2019-03-17T22:37:15.270Z,4.12
2019-03-17T22:39:50.566Z,6.92
2019-03-17T22:42:18.937Z,3.92
2019-03-17T22:44:50.165Z,6.05
2019-03-17T22:47:19.164Z,5.00
2019-03-17T22:49:47.464Z,4.28
2019-03-17T22:52:15.641Z,4.87
2019-03-17T22:54:43.750Z,4.45
2019-03-17T22:57:12.032Z,4.10
2019-03-17T22:59:40.185Z,4.62
2019-03-17T23:02:08.480Z,4.90
2019-03-17T23:04:36.704Z,4.22
2019-03-17T23:07:04.855Z,3.37
2019-03-17T23:09:33.063Z,5.10
2019-03-17T23:12:01.320Z,5.58
2019-03-17T23:14:36.574Z,5.97
2019-03-17T23:16:59.523Z,3.80
2019-03-17T23:19:27.665Z,6.65
2019-03-17T23:21:55.870Z,4.72
2019-03-17T23:24:23.962Z,4.80
2019-03-17T23:26:52.111Z,4.55
2019-03-17T23:29:20.333Z,5.55
2019-03-17T23:31:48.489Z,5.37
2019-03-17T23:34:16.684Z,7.22
2019-03-17T23:36:44.742Z,6.33
2019-03-17T23:39:12.827Z,4.80
2019-03-17T23:41:40.931Z,5.72
2019-03-17T23:44:09.143Z,3.95
2019-03-17T23:46:37.280Z,4.75
2019-03-17T23:49:07.450Z,8.23
2019-03-17T23:51:35.297Z,4.72
2019-03-17T23:54:03.404Z,5.95
2019-03-17T23:56:31.701Z,3.80
2019-03-17T23:58:59.811Z,5.35
